createdAt,value
2019-01-12T00:01:03.135Z,57.26
2019-01-12T00:02:12.239Z,57.17
2019-01-12T00:03:21.045Z,57.07
2019-01-12T00:04:30.391Z,57.07
2019-01-12T00:05:39.470Z,57.07
2019-01-12T00:06:48.556Z,57.07
2019-01-12T00:07:57.916Z,57.07
2019-01-12T00:09:06.729Z,57.07
2019-01-12T00:10:17.355Z,57.26
2019-01-12T00:11:26.180Z,57.17
2019-01-12T00:12:35.258Z,57.07
2019-01-12T00:13:44.103Z,57.17
2019-01-12T00:14:53.198Z,57.26
2019-01-12T00:16:02.113Z,57.17
2019-01-12T00:17:10.931Z,57.17
2019-01-12T00:18:19.744Z,57.07
2019-01-12T00:19:29.128Z,57.07
2019-01-12T00:20:38.229Z,57.07
2019-01-12T00:21:47.414Z,56.98
2019-01-12T00:22:56.230Z,57.17
2019-01-12T00:24:05.575Z,57.17
2019-01-12T00:25:14.928Z,57.17
2019-01-12T00:26:23.763Z,57.17
2019-01-12T00:27:33.228Z,57.26
2019-01-12T00:28:42.582Z,57.26
2019-01-12T00:29:51.427Z,57.26
2019-01-12T00:31:00.226Z,57.26
2019-01-12T00:32:09.058Z,57.36
2019-01-12T00:33:17.994Z,57.07
2019-01-12T00:34:27.075Z,57.07
2019-01-12T00:35:36.156Z,57.07
2019-01-12T00:36:44.957Z,57.07
2019-01-12T00:37:53.787Z,57.36
2019-01-12T00:39:02.728Z,56.68
2019-01-12T00:40:11.793Z,56.68
2019-01-12T00:41:20.613Z,56.78
2019-01-12T00:42:29.705Z,56.98
2019-01-12T00:43:38.547Z,56.98
2019-01-12T00:44:47.373Z,57.36
2019-01-12T00:45:56.439Z,57.36
2019-01-12T00:47:05.791Z,56.78
2019-01-12T00:48:14.622Z,57.36
2019-01-12T00:49:23.727Z,56.68
2019-01-12T00:50:32.885Z,56.68
2019-01-12T00:51:41.999Z,57.36
2019-01-12T00:52:51.363Z,56.88
2019-01-12T00:54:00.425Z,56.68
2019-01-12T00:55:09.237Z,56.98
2019-01-12T00:56:18.370Z,56.88
2019-01-12T00:57:27.707Z,56.78
2019-01-12T00:58:37.070Z,57.17
2019-01-12T00:59:46.426Z,56.88
2019-01-12T01:00:55.249Z,57.07
2019-01-12T01:02:04.085Z,56.88
2019-01-12T01:03:12.970Z,56.98
2019-01-12T01:04:22.294Z,56.4
2019-01-12T01:05:32.038Z,56.4
2019-01-12T01:06:40.857Z,56.78
2019-01-12T01:07:50.579Z,56.59
2019-01-12T01:08:59.674Z,56.68
2019-01-12T01:10:08.749Z,56.78
2019-01-12T01:11:18.096Z,56.59
2019-01-12T01:12:27.459Z,56.59
2019-01-12T01:13:37.339Z,56.68
2019-01-12T01:14:46.440Z,56.4
2019-01-12T01:15:55.549Z,56.49
2019-01-12T01:17:04.636Z,56.68
2019-01-12T01:18:13.760Z,56.98
2019-01-12T01:19:22.950Z,56.49
2019-01-12T01:20:31.767Z,56.88
2019-01-12T01:21:40.603Z,56.59
2019-01-12T01:22:49.680Z,56.78
2019-01-12T01:23:58.543Z,56.59
2019-01-12T01:25:07.717Z,56.59
2019-01-12T01:26:16.842Z,56.59
2019-01-12T01:27:25.927Z,56.3
2019-01-12T01:28:34.754Z,56.59
2019-01-12T01:29:43.582Z,56.59
2019-01-12T01:30:52.767Z,56.4
2019-01-12T01:32:02.120Z,56.3
2019-01-12T01:33:11.217Z,56.49
2019-01-12T01:34:20.309Z,56.68
2019-01-12T01:35:29.180Z,56.68
2019-01-12T01:36:38.025Z,56.68
2019-01-12T01:37:47.098Z,56.68
2019-01-12T01:38:55.925Z,56.68
2019-01-12T01:40:05.020Z,56.68
2019-01-12T01:41:13.863Z,56.68
2019-01-12T01:42:22.775Z,56.68
2019-01-12T01:43:31.581Z,56.68
2019-01-12T01:44:40.393Z,56.68
2019-01-12T01:45:49.242Z,56.59
2019-01-12T01:46:58.065Z,56.68
2019-01-12T01:48:06.979Z,56.68
2019-01-12T01:49:16.043Z,56.68
2019-01-12T01:50:25.126Z,56.68
2019-01-12T01:51:34.194Z,56.4
2019-01-12T01:52:43.034Z,56.59
2019-01-12T01:53:53.155Z,56.68
2019-01-12T01:55:02.346Z,56.49
2019-01-12T01:56:11.149Z,56.68
2019-01-12T01:57:19.977Z,56.78
2019-01-12T01:58:28.823Z,56.59
2019-01-12T01:59:37.970Z,56.4
2019-01-12T02:00:46.802Z,56.68
2019-01-12T02:01:55.899Z,56.68
2019-01-12T02:03:04.983Z,56.56
2019-01-12T02:04:14.328Z,56.59
2019-01-12T02:05:23.153Z,56.68
2019-01-12T02:06:31.977Z,56.76
2019-01-12T02:07:41.059Z,56.78
2019-01-12T02:08:50.410Z,56.78
2019-01-12T02:09:59.488Z,56.78
2019-01-12T02:11:08.405Z,56.76
2019-01-12T02:12:17.503Z,56.37
2019-01-12T02:13:36.200Z,56.66
2019-01-12T02:14:45.318Z,56.76
2019-01-12T02:15:54.390Z,56.4
2019-01-12T02:17:03.528Z,56.68
2019-01-12T02:18:12.356Z,56.66
2019-01-12T02:19:21.166Z,56.66
2019-01-12T02:20:30.265Z,56.85
2019-01-12T02:21:39.359Z,56.49
2019-01-12T02:22:48.189Z,56.68
2019-01-12T02:23:57.001Z,56.76
2019-01-12T02:25:05.837Z,56.78
2019-01-12T02:26:15.445Z,56.56
2019-01-12T02:27:25.055Z,56.4
2019-01-12T02:28:33.980Z,56.46
2019-01-12T02:29:43.068Z,56.76
2019-01-12T02:30:52.185Z,56.88
2019-01-12T02:32:01.532Z,56.88
2019-01-12T02:33:10.885Z,56.66
2019-01-12T02:34:20.048Z,56.78
2019-01-12T02:35:28.918Z,56.59
2019-01-12T02:36:37.774Z,56.68
2019-01-12T02:37:46.844Z,56.88
2019-01-12T02:38:55.657Z,56.78
2019-01-12T02:40:04.875Z,56.68
2019-01-12T02:41:13.988Z,56.49
2019-01-12T02:42:23.060Z,56.68
2019-01-12T02:43:32.145Z,56.59
2019-01-12T02:44:41.494Z,56.78
2019-01-12T02:45:50.603Z,56.59
2019-01-12T02:46:59.423Z,56.78
2019-01-12T02:48:08.520Z,56.59
2019-01-12T02:49:17.402Z,56.68
2019-01-12T02:50:26.234Z,56.68
2019-01-12T02:51:35.698Z,56.56
2019-01-12T02:52:44.802Z,56.59
2019-01-12T02:53:53.911Z,56.68
2019-01-12T02:55:10.689Z,56.68
2019-01-12T02:56:19.781Z,56.78
2019-01-12T02:57:28.912Z,56.46
2019-01-12T02:58:37.732Z,56.59
2019-01-12T02:59:46.815Z,56.59
2019-01-12T03:00:55.619Z,56.78
2019-01-12T03:02:05.306Z,56.66
2019-01-12T03:03:14.407Z,56.46
2019-01-12T03:04:23.230Z,56.78
2019-01-12T03:05:32.590Z,56.76
2019-01-12T03:06:41.948Z,56.66
2019-01-12T03:07:51.309Z,56.66
2019-01-12T03:09:00.607Z,56.68
2019-01-12T03:10:09.705Z,56.66
2019-01-12T03:11:19.084Z,56.66
2019-01-12T03:12:27.904Z,56.46
2019-01-12T03:13:37.024Z,56.66
2019-01-12T03:14:46.158Z,56.56
2019-01-12T03:15:54.984Z,56.46
2019-01-12T03:17:04.063Z,56.66
2019-01-12T03:18:13.152Z,56.66
2019-01-12T03:19:21.999Z,56.66
2019-01-12T03:20:31.094Z,56.56
2019-01-12T03:21:40.194Z,56.56
2019-01-12T03:22:49.487Z,56.46
2019-01-12T03:23:58.591Z,56.46
2019-01-12T03:25:07.961Z,56.46
2019-01-12T03:26:24.616Z,56.66
2019-01-12T03:27:33.713Z,56.66
2019-01-12T03:28:42.541Z,56.66
2019-01-12T03:29:51.415Z,56.66
2019-01-12T03:31:00.270Z,56.66
2019-01-12T03:32:10.275Z,56.46
2019-01-12T03:33:19.142Z,56.95
2019-01-12T03:34:28.242Z,56.46
2019-01-12T03:35:37.585Z,56.66
2019-01-12T03:36:46.666Z,56.66
2019-01-12T03:37:55.549Z,56.95
2019-01-12T03:39:04.920Z,56.66
2019-01-12T03:40:14.039Z,56.66
2019-01-12T03:41:23.375Z,56.56
2019-01-12T03:42:32.219Z,56.95
2019-01-12T03:43:41.115Z,56.95
2019-01-12T03:44:49.934Z,56.85
2019-01-12T03:45:59.030Z,56.66
2019-01-12T03:47:08.140Z,56.85
2019-01-12T03:48:17.229Z,56.95
2019-01-12T03:49:26.665Z,56.76
2019-01-12T03:50:36.024Z,56.76
2019-01-12T03:51:45.120Z,56.76
2019-01-12T03:52:54.236Z,56.85
2019-01-12T03:54:03.056Z,56.76
2019-01-12T03:55:12.454Z,56.76
2019-01-12T03:56:30.457Z,56.95
2019-01-12T03:57:39.797Z,56.95
2019-01-12T03:58:48.868Z,56.76
2019-01-12T03:59:57.698Z,56.85
2019-01-12T04:01:06.607Z,56.76
2019-01-12T04:02:15.419Z,56.76
2019-01-12T04:03:24.521Z,56.76
2019-01-12T04:04:33.873Z,56.76
2019-01-12T04:05:44.988Z,56.37
2019-01-12T04:06:54.331Z,56.66
2019-01-12T04:08:03.169Z,56.76
2019-01-12T04:09:12.010Z,56.85
2019-01-12T04:10:21.606Z,56.76
2019-01-12T04:11:30.437Z,56.76
2019-01-12T04:12:39.617Z,56.56
2019-01-12T04:13:48.464Z,56.56
2019-01-12T04:14:57.280Z,56.56
2019-01-12T04:16:06.123Z,56.37
2019-01-12T04:17:15.226Z,56.37
2019-01-12T04:18:24.855Z,56.37
2019-01-12T04:19:34.726Z,56.56
2019-01-12T04:20:43.573Z,56.37
2019-01-12T04:21:52.380Z,56.37
2019-01-12T04:23:01.193Z,56.27
2019-01-12T04:24:10.159Z,56.18
2019-01-12T04:25:19.251Z,55.99
2019-01-12T04:26:35.844Z,55.79
2019-01-12T04:27:45.230Z,56.18
2019-01-12T04:28:54.567Z,56.18
2019-01-12T04:30:03.394Z,56.08
2019-01-12T04:31:12.205Z,56.08
2019-01-12T04:32:21.022Z,56.08
2019-01-12T04:33:30.096Z,55.99
2019-01-12T04:34:39.159Z,56.18
2019-01-12T04:35:47.983Z,56.37
2019-01-12T04:36:57.101Z,56.37
2019-01-12T04:38:06.457Z,56.18
2019-01-12T04:39:15.260Z,56.08
2019-01-12T04:40:24.089Z,56.08
2019-01-12T04:41:33.277Z,56.27
2019-01-12T04:42:42.378Z,56.27
2019-01-12T04:43:51.479Z,56.08
2019-01-12T04:45:00.295Z,56.18
2019-01-12T04:46:09.104Z,55.99
2019-01-12T04:47:17.972Z,55.99
2019-01-12T04:48:26.772Z,56.18
2019-01-12T04:49:36.107Z,56.18
2019-01-12T04:50:45.189Z,56.18
2019-01-12T04:51:53.993Z,55.89
2019-01-12T04:53:03.192Z,56.18
2019-01-12T04:54:12.553Z,55.79
2019-01-12T04:55:21.639Z,55.79
2019-01-12T04:56:30.728Z,55.89
2019-01-12T04:57:40.320Z,56.18
2019-01-12T04:58:49.196Z,56.08
2019-01-12T04:59:58.049Z,56.08
2019-01-12T05:01:06.971Z,56.27
2019-01-12T05:02:15.807Z,56.08
2019-01-12T05:03:24.911Z,56.08
2019-01-12T05:04:33.748Z,55.89
2019-01-12T05:05:42.839Z,56.08
2019-01-12T05:06:51.698Z,55.69
2019-01-12T05:08:01.062Z,56.08
2019-01-12T05:09:10.177Z,55.89
2019-01-12T05:10:19.559Z,56.08
2019-01-12T05:11:28.630Z,56.08
2019-01-12T05:12:37.989Z,56.08
2019-01-12T05:13:46.814Z,55.89
2019-01-12T05:14:56.163Z,55.99
2019-01-12T05:16:05.350Z,55.69
2019-01-12T05:17:14.431Z,55.69
2019-01-12T05:18:23.301Z,55.79
2019-01-12T05:19:32.675Z,55.89
2019-01-12T05:20:41.502Z,55.79
2019-01-12T05:21:50.878Z,55.89
2019-01-12T05:22:59.710Z,55.89
2019-01-12T05:24:09.344Z,55.69
2019-01-12T05:25:18.188Z,55.79
2019-01-12T05:26:27.290Z,55.79
2019-01-12T05:27:36.225Z,55.79
2019-01-12T05:28:45.072Z,55.89
2019-01-12T05:29:54.190Z,55.89
2019-01-12T05:31:03.028Z,55.89
2019-01-12T05:32:12.122Z,55.89
2019-01-12T05:33:21.014Z,55.89
2019-01-12T05:34:30.128Z,55.89
2019-01-12T05:35:39.537Z,55.89
2019-01-12T05:36:48.878Z,55.89
2019-01-12T05:37:57.962Z,55.89
2019-01-12T05:39:06.843Z,55.89
2019-01-12T05:40:15.691Z,55.89
2019-01-12T05:41:25.294Z,55.69
2019-01-12T05:42:34.143Z,55.99
2019-01-12T05:43:43.788Z,55.79
2019-01-12T05:44:52.635Z,55.99
2019-01-12T05:46:02.006Z,56.18
2019-01-12T05:47:11.624Z,56.18
2019-01-12T05:48:20.975Z,56.08
2019-01-12T05:49:30.072Z,55.99
2019-01-12T05:50:38.887Z,55.99
2019-01-12T05:51:47.721Z,56.08
2019-01-12T05:52:57.085Z,56.18
2019-01-12T05:54:06.160Z,56.08
2019-01-12T05:55:14.988Z,56.08
2019-01-12T05:56:24.382Z,56.08
2019-01-12T05:57:34.012Z,56.08
2019-01-12T05:58:43.365Z,55.99
2019-01-12T05:59:52.189Z,56.08
2019-01-12T06:01:01.018Z,56.18
2019-01-12T06:02:11.656Z,55.99
2019-01-12T06:03:20.482Z,56.08
2019-01-12T06:04:29.557Z,55.79
2019-01-12T06:05:38.385Z,55.99
2019-01-12T06:06:47.710Z,56.18
2019-01-12T06:07:56.859Z,56.08
2019-01-12T06:09:05.983Z,56.08
2019-01-12T06:10:17.289Z,56.08
2019-01-12T06:11:26.371Z,56.08
2019-01-12T06:12:35.183Z,56.08
2019-01-12T06:13:44.638Z,56.08
2019-01-12T06:14:53.993Z,56.18
2019-01-12T06:16:03.600Z,56.08
2019-01-12T06:17:12.413Z,56.08
2019-01-12T06:18:21.510Z,56.18
2019-01-12T06:19:30.900Z,55.99
2019-01-12T06:20:40.003Z,55.79
2019-01-12T06:21:49.098Z,55.79
2019-01-12T06:22:58.462Z,55.69
2019-01-12T06:24:07.539Z,55.89
2019-01-12T06:25:16.685Z,55.69
2019-01-12T06:26:25.796Z,56.18
2019-01-12T06:27:34.926Z,55.89
2019-01-12T06:28:43.754Z,56.18
2019-01-12T06:29:52.848Z,55.99
2019-01-12T06:31:03.433Z,56.18
2019-01-12T06:32:12.244Z,56.08
2019-01-12T06:33:21.087Z,55.99
2019-01-12T06:34:30.466Z,55.99
2019-01-12T06:35:39.553Z,56.18
2019-01-12T06:36:48.427Z,55.99
2019-01-12T06:37:58.322Z,56.08
2019-01-12T06:39:07.132Z,55.96
2019-01-12T06:40:16.215Z,55.99
2019-01-12T06:41:25.034Z,55.99
2019-01-12T06:42:34.251Z,56.18
2019-01-12T06:43:43.094Z,56.08
2019-01-12T06:44:51.900Z,55.99
2019-01-12T06:46:01.116Z,56.27
2019-01-12T06:47:09.951Z,56.08
2019-01-12T06:48:18.816Z,55.89
2019-01-12T06:49:27.892Z,56.27
2019-01-12T06:50:36.983Z,56.37
2019-01-12T06:51:45.786Z,56.27
2019-01-12T06:52:54.879Z,55.99
2019-01-12T06:54:03.959Z,56.08
2019-01-12T06:55:12.763Z,55.96
2019-01-12T06:56:21.872Z,55.89
2019-01-12T06:57:30.695Z,55.99
2019-01-12T06:58:39.524Z,56.08
2019-01-12T06:59:48.368Z,56.08
2019-01-12T07:00:57.697Z,56.08
2019-01-12T07:02:06.515Z,55.69
2019-01-12T07:03:15.357Z,56.18
2019-01-12T07:04:24.435Z,55.99
2019-01-12T07:05:33.562Z,56.18
2019-01-12T07:06:42.369Z,56.18
2019-01-12T07:07:51.449Z,56.18
2019-01-12T07:09:00.542Z,56.18
2019-01-12T07:10:09.654Z,56.18
2019-01-12T07:11:18.477Z,55.99
2019-01-12T07:12:27.331Z,55.99
2019-01-12T07:13:36.434Z,55.99
2019-01-12T07:14:45.806Z,55.96
2019-01-12T07:15:54.877Z,55.99
2019-01-12T07:17:03.798Z,56.18
2019-01-12T07:18:12.632Z,56.37
2019-01-12T07:19:21.695Z,56.27
2019-01-12T07:20:30.774Z,55.69
2019-01-12T07:21:40.122Z,55.69
2019-01-12T07:22:49.547Z,55.22
2019-01-12T07:23:58.628Z,55.6
2019-01-12T07:25:07.458Z,56.18
2019-01-12T07:26:19.850Z,56.18
2019-01-12T07:27:28.690Z,56.18
2019-01-12T07:28:37.803Z,56.18
2019-01-12T07:29:46.627Z,55.69
2019-01-12T07:30:55.461Z,56.18
2019-01-12T07:32:04.537Z,56.27
2019-01-12T07:33:13.350Z,55.51
2019-01-12T07:34:22.573Z,55.79
2019-01-12T07:35:31.663Z,55.69
2019-01-12T07:36:41.011Z,55.69
2019-01-12T07:37:49.836Z,55.41
2019-01-12T07:38:58.899Z,55.69
2019-01-12T07:40:07.781Z,55.69
2019-01-12T07:41:16.583Z,55.41
2019-01-12T07:42:25.935Z,55.6
2019-01-12T07:43:34.766Z,55.41
2019-01-12T07:44:43.872Z,55.6
2019-01-12T07:45:52.945Z,55.69
2019-01-12T07:47:01.784Z,55.51
2019-01-12T07:48:10.604Z,55.51
2019-01-12T07:49:19.444Z,55.51
2019-01-12T07:50:29.421Z,55.32
2019-01-12T07:51:38.562Z,55.32
2019-01-12T07:52:48.215Z,55.6
2019-01-12T07:53:57.570Z,55.6
2019-01-12T07:55:07.208Z,55.6
2019-01-12T07:56:16.299Z,55.32
2019-01-12T07:57:31.323Z,55.6
2019-01-12T07:58:40.422Z,55.51
2019-01-12T07:59:49.272Z,55.6
2019-01-12T08:00:59.169Z,55.6
2019-01-12T08:02:08.253Z,55.51
2019-01-12T08:03:17.064Z,55.6
2019-01-12T08:04:26.173Z,55.41
2019-01-12T08:05:35.279Z,55.6
2019-01-12T08:06:44.385Z,55.32
2019-01-12T08:07:53.205Z,55.6
2019-01-12T08:09:02.608Z,55.32
2019-01-12T08:10:11.755Z,55.69
2019-01-12T08:11:20.574Z,55.6
2019-01-12T08:12:29.386Z,55.79
2019-01-12T08:13:38.454Z,55.41
2019-01-12T08:14:47.553Z,55.41
2019-01-12T08:15:56.629Z,55.32
2019-01-12T08:17:05.455Z,55.32
2019-01-12T08:18:14.469Z,55.32
2019-01-12T08:19:23.319Z,55.6
2019-01-12T08:20:32.395Z,55.6
2019-01-12T08:21:41.476Z,55.6
2019-01-12T08:22:50.307Z,55.69
2019-01-12T08:24:00.422Z,55.6
2019-01-12T08:25:09.516Z,55.51
2019-01-12T08:26:18.612Z,55.32
2019-01-12T08:27:33.489Z,55.32
2019-01-12T08:28:42.838Z,55.41
2019-01-12T08:29:51.648Z,55.69
2019-01-12T08:31:00.736Z,56.18
2019-01-12T08:32:09.557Z,55.89
2019-01-12T08:33:19.176Z,56.18
2019-01-12T08:34:28.282Z,55.79
2019-01-12T08:35:37.388Z,55.79
2019-01-12T08:36:46.476Z,55.89
2019-01-12T08:37:55.286Z,55.51
2019-01-12T08:39:04.403Z,55.89
2019-01-12T08:40:13.488Z,55.02
2019-01-12T08:41:22.555Z,54.74
2019-01-12T08:42:31.929Z,54.45
2019-01-12T08:43:41.289Z,54.25
2019-01-12T08:44:50.665Z,54.35
2019-01-12T08:45:59.753Z,54.55
2019-01-12T08:47:08.561Z,54.35
2019-01-12T08:48:17.374Z,54.35
2019-01-12T08:49:26.244Z,54.35
2019-01-12T08:50:35.059Z,54.25
2019-01-12T08:51:43.864Z,54.77
2019-01-12T08:52:52.936Z,54.86
2019-01-12T08:54:02.589Z,55.05
2019-01-12T08:55:11.442Z,55.63
2019-01-12T08:56:20.540Z,56.3
2019-01-12T08:57:29.894Z,55.82
2019-01-12T08:58:39.248Z,55.73
2019-01-12T08:59:48.335Z,56.4
2019-01-12T09:00:57.728Z,56.4
2019-01-12T09:02:06.818Z,56.78
2019-01-12T09:03:15.651Z,56.33
2019-01-12T09:04:24.771Z,56.62
2019-01-12T09:05:33.876Z,57.29
2019-01-12T09:06:43.001Z,57.1
2019-01-12T09:07:51.821Z,57.2
2019-01-12T09:09:00.622Z,57.29
2019-01-12T09:10:09.695Z,57.48
2019-01-12T09:11:19.042Z,57.48
2019-01-12T09:12:27.917Z,57.48
2019-01-12T09:13:36.726Z,57.2
2019-01-12T09:14:45.560Z,57.58
2019-01-12T09:15:54.932Z,57.48
2019-01-12T09:17:03.750Z,57.42
2019-01-12T09:18:12.668Z,57.51
2019-01-12T09:19:21.743Z,57.13
2019-01-12T09:20:30.581Z,57.13
2019-01-12T09:21:39.663Z,57.8
2019-01-12T09:22:48.735Z,57.8
2019-01-12T09:23:58.460Z,58.09
2019-01-12T09:25:07.553Z,58.09
2019-01-12T09:26:16.366Z,57.99
2019-01-12T09:27:25.447Z,58.09
2019-01-12T09:28:34.516Z,57.6
2019-01-12T09:29:43.721Z,57.9
2019-01-12T09:30:52.534Z,57.9
2019-01-12T09:32:01.859Z,57.99
2019-01-12T09:33:11.793Z,58.18
2019-01-12T09:34:20.888Z,58.28
2019-01-12T09:35:30.068Z,58.67
2019-01-12T09:36:39.696Z,59.08
2019-01-12T09:37:48.561Z,59.15
2019-01-12T09:38:57.655Z,58.98
2019-01-12T09:40:06.738Z,58.98
2019-01-12T09:41:15.551Z,58.89
2019-01-12T09:42:24.413Z,58.5
2019-01-12T09:43:33.227Z,58.5
2019-01-12T09:44:42.560Z,56.29
2019-01-12T09:45:51.664Z,55.78
2019-01-12T09:47:00.588Z,55.76
2019-01-12T09:48:09.412Z,55.37
2019-01-12T09:49:18.478Z,55.08
2019-01-12T09:50:27.288Z,54.89
2019-01-12T09:51:36.108Z,55.08
2019-01-12T09:52:45.000Z,55.18
2019-01-12T09:53:53.831Z,54.86
2019-01-12T09:55:03.062Z,55.24
2019-01-12T09:56:11.882Z,55.05
2019-01-12T09:57:20.967Z,55.53
2019-01-12T09:58:30.141Z,55.73
2019-01-12T09:59:39.474Z,55.53
2019-01-12T10:00:48.552Z,55.63
2019-01-12T10:01:57.371Z,55.53
2019-01-12T10:03:06.489Z,55.63
2019-01-12T10:04:15.403Z,55.76
2019-01-12T10:05:24.230Z,55.85
2019-01-12T10:06:33.827Z,56.23
2019-01-12T10:07:42.674Z,55.85
2019-01-12T10:08:51.509Z,55.76
2019-01-12T10:10:00.616Z,55.94
2019-01-12T10:11:09.448Z,56.23
2019-01-12T10:12:18.282Z,56.71
2019-01-12T10:13:27.630Z,56.91
2019-01-12T10:14:36.445Z,57.1
2019-01-12T10:15:45.268Z,57.1
2019-01-12T10:16:54.368Z,57
2019-01-12T10:18:03.447Z,57
2019-01-12T10:19:12.245Z,57.48
2019-01-12T10:20:21.627Z,57.58
2019-01-12T10:21:31.081Z,57.8
2019-01-12T10:22:40.174Z,57.99
2019-01-12T10:23:49.138Z,58.09
2019-01-12T10:24:58.027Z,57.99
2019-01-12T10:26:07.133Z,57.9
2019-01-12T10:27:16.270Z,58.09
2019-01-12T10:28:25.610Z,57.9
2019-01-12T10:29:34.738Z,57.9
2019-01-12T10:30:43.631Z,57.9
2019-01-12T10:31:52.973Z,57.7
2019-01-12T10:33:01.893Z,57.7
2019-01-12T10:34:10.715Z,57.42
2019-01-12T10:35:20.103Z,57.22
2019-01-12T10:36:28.918Z,57.22
2019-01-12T10:37:38.036Z,57.32
2019-01-12T10:38:46.965Z,57.32
2019-01-12T10:39:56.567Z,56.45
2019-01-12T10:41:05.655Z,56.91
2019-01-12T10:42:14.726Z,56.81
2019-01-12T10:43:23.564Z,57
2019-01-12T10:44:32.425Z,57.13
2019-01-12T10:45:41.505Z,56.93
2019-01-12T10:46:50.602Z,56.84
2019-01-12T10:47:59.423Z,56.93
2019-01-12T10:49:08.516Z,57.03
2019-01-12T10:50:17.712Z,56.93
2019-01-12T10:51:26.544Z,57.32
2019-01-12T10:52:35.352Z,57.32
2019-01-12T10:53:44.177Z,56.93
2019-01-12T10:54:53.008Z,56.93
2019-01-12T10:56:02.249Z,57.03
2019-01-12T10:57:11.327Z,57.13
2019-01-12T10:58:20.401Z,57.32
2019-01-12T10:59:29.216Z,57.51
2019-01-12T11:00:38.325Z,57.42
2019-01-12T11:01:47.236Z,57.42
2019-01-12T11:02:56.318Z,57.45
2019-01-12T11:04:05.136Z,57.22
2019-01-12T11:05:14.215Z,57.35
2019-01-12T11:06:23.035Z,57.45
2019-01-12T11:07:32.253Z,57.35
2019-01-12T11:08:42.352Z,57.45
2019-01-12T11:09:51.185Z,57.25
2019-01-12T11:11:06.638Z,57.54
2019-01-12T11:12:15.711Z,57.54
2019-01-12T11:13:24.621Z,57.06
2019-01-12T11:14:33.965Z,57.15
2019-01-12T11:15:43.072Z,56.87
2019-01-12T11:16:52.414Z,57.06
2019-01-12T11:18:01.224Z,57.25
2019-01-12T11:19:10.389Z,57.25
2019-01-12T11:20:19.499Z,57.35
2019-01-12T11:21:28.353Z,57.06
2019-01-12T11:22:37.181Z,57.06
2019-01-12T11:23:46.524Z,56.67
2019-01-12T11:24:55.699Z,56.38
2019-01-12T11:26:05.566Z,56.77
2019-01-12T11:27:14.721Z,56.77
2019-01-12T11:28:23.547Z,56.77
2019-01-12T11:29:32.355Z,56.67
2019-01-12T11:30:41.490Z,56.87
2019-01-12T11:31:50.332Z,56.67
2019-01-12T11:32:59.473Z,56.67
2019-01-12T11:34:08.555Z,56.77
2019-01-12T11:35:17.390Z,56.67
2019-01-12T11:36:26.341Z,56.58
2019-01-12T11:37:35.173Z,57.15
2019-01-12T11:38:44.531Z,56.48
2019-01-12T11:39:53.331Z,56.29
2019-01-12T11:41:02.153Z,56.38
2019-01-12T11:42:12.495Z,56.1
2019-01-12T11:43:21.841Z,56
2019-01-12T11:44:30.947Z,56
2019-01-12T11:45:40.039Z,56.1
2019-01-12T11:46:49.121Z,56
2019-01-12T11:47:58.309Z,56
2019-01-12T11:49:07.398Z,56
2019-01-12T11:50:17.032Z,55.9
2019-01-12T11:51:25.837Z,55.9
2019-01-12T11:52:34.660Z,56.1
2019-01-12T11:53:44.030Z,56.38
2019-01-12T11:54:53.104Z,56.38
2019-01-12T11:56:02.458Z,56.2
2019-01-12T11:57:11.284Z,55.9
2019-01-12T11:58:26.205Z,55.9
2019-01-12T11:59:37.028Z,55.9
2019-01-12T12:00:46.140Z,56
2019-01-12T12:01:54.953Z,56.2
2019-01-12T12:03:04.309Z,56.1
2019-01-12T12:04:13.415Z,56.1
2019-01-12T12:05:22.614Z,56.38
2019-01-12T12:06:31.976Z,56.38
2019-01-12T12:07:41.072Z,55.71
2019-01-12T12:08:49.926Z,56.1
2019-01-12T12:09:58.732Z,56.2
2019-01-12T12:11:07.735Z,56.2
2019-01-12T12:12:17.339Z,55.9
2019-01-12T12:13:26.188Z,55.52
2019-01-12T12:14:35.023Z,55.43
2019-01-12T12:15:44.092Z,55.62
2019-01-12T12:16:52.990Z,55.71
2019-01-12T12:18:02.067Z,55.81
2019-01-12T12:19:11.159Z,55.71
2019-01-12T12:20:19.980Z,55.81
2019-01-12T12:21:30.138Z,55.81
2019-01-12T12:22:39.066Z,55.62
2019-01-12T12:23:47.893Z,55.71
2019-01-12T12:24:56.711Z,55.62
2019-01-12T12:26:05.548Z,55.9
2019-01-12T12:27:14.350Z,55.81
2019-01-12T12:28:28.524Z,55.71
2019-01-12T12:29:37.642Z,55.71
2019-01-12T12:30:46.454Z,55.62
2019-01-12T12:31:55.294Z,55.52
2019-01-12T12:33:04.367Z,55.52
2019-01-12T12:34:13.187Z,55.52
2019-01-12T12:35:22.023Z,55.9
2019-01-12T12:36:31.373Z,55.71
2019-01-12T12:37:40.481Z,55.52
2019-01-12T12:38:49.572Z,55.71
2019-01-12T12:39:58.464Z,55.81
2019-01-12T12:41:07.273Z,55.52
2019-01-12T12:42:16.623Z,55.52
2019-01-12T12:43:25.712Z,55.62
2019-01-12T12:44:34.514Z,55.71
2019-01-12T12:45:43.492Z,55.43
2019-01-12T12:46:52.320Z,55.74
2019-01-12T12:48:01.153Z,56.12
2019-01-12T12:49:10.004Z,56
2019-01-12T12:50:19.093Z,55.83
2019-01-12T12:51:27.938Z,56.03
2019-01-12T12:52:36.784Z,56
2019-01-12T12:53:45.600Z,56.12
2019-01-12T12:54:54.444Z,56
2019-01-12T12:56:04.079Z,56
2019-01-12T12:57:13.519Z,56.12
2019-01-12T12:58:22.344Z,56
2019-01-12T12:59:31.188Z,55.93
2019-01-12T13:00:40.544Z,55.93
2019-01-12T13:01:49.634Z,56.32
2019-01-12T13:02:58.739Z,56.32
2019-01-12T13:04:08.116Z,56.22
2019-01-12T13:05:16.954Z,56.03
2019-01-12T13:06:25.770Z,56.32
2019-01-12T13:07:34.597Z,55.93
2019-01-12T13:08:48.367Z,55.74
2019-01-12T13:09:57.640Z,56.2
2019-01-12T13:11:07.015Z,55.65
2019-01-12T13:12:15.822Z,55.9
2019-01-12T13:13:24.667Z,55.13
2019-01-12T13:14:33.577Z,55.81
2019-01-12T13:15:42.671Z,55.62
2019-01-12T13:16:52.033Z,55.62
2019-01-12T13:18:01.126Z,55.71
2019-01-12T13:19:10.501Z,55.62
2019-01-12T13:20:20.491Z,55.9
2019-01-12T13:21:30.119Z,56.48
2019-01-12T13:22:38.965Z,56.1
2019-01-12T13:23:48.583Z,56
2019-01-12T13:24:57.921Z,55.9
2019-01-12T13:26:07.482Z,56.2
2019-01-12T13:27:16.582Z,56.1
2019-01-12T13:28:25.918Z,55.81
2019-01-12T13:29:34.744Z,56.38
2019-01-12T13:30:43.848Z,56
2019-01-12T13:31:52.929Z,56
2019-01-12T13:33:02.267Z,55.9
2019-01-12T13:34:11.349Z,55.81
2019-01-12T13:35:20.431Z,56
2019-01-12T13:36:29.325Z,55.62
2019-01-12T13:37:38.789Z,55.81
2019-01-12T13:38:47.620Z,55.23
2019-01-12T13:39:56.428Z,55.04
2019-01-12T13:41:05.514Z,55.59
2019-01-12T13:42:14.590Z,55.88
2019-01-12T13:43:23.526Z,55.68
2019-01-12T13:44:32.351Z,55.59
2019-01-12T13:45:41.739Z,56.26
2019-01-12T13:46:50.824Z,55.68
2019-01-12T13:47:59.643Z,55.78
2019-01-12T13:49:08.478Z,56
2019-01-12T13:50:17.557Z,56
2019-01-12T13:51:26.902Z,56
2019-01-12T13:52:36.246Z,56.1
2019-01-12T13:53:45.334Z,56
2019-01-12T13:54:55.235Z,56
2019-01-12T13:56:04.622Z,55.9
2019-01-12T13:57:13.708Z,56.1
2019-01-12T13:58:22.517Z,56
2019-01-12T13:59:31.614Z,56
2019-01-12T14:00:40.826Z,56.1
2019-01-12T14:01:49.890Z,56.38
2019-01-12T14:02:58.712Z,55.71
2019-01-12T14:04:08.766Z,55.81
2019-01-12T14:05:18.147Z,55.71
2019-01-12T14:06:27.578Z,55.62
2019-01-12T14:07:36.657Z,55.62
2019-01-12T14:08:45.479Z,55.62
2019-01-12T14:09:54.816Z,55.62
2019-01-12T14:11:03.674Z,55.74
2019-01-12T14:12:12.493Z,55.65
2019-01-12T14:13:21.304Z,55.83
2019-01-12T14:14:30.647Z,55.93
2019-01-12T14:15:39.472Z,55.71
2019-01-12T14:16:48.293Z,55.65
2019-01-12T14:17:57.169Z,55.65
2019-01-12T14:19:06.826Z,55.71
2019-01-12T14:20:15.925Z,55.74
2019-01-12T14:21:24.753Z,55.74
2019-01-12T14:22:33.584Z,55.9
2019-01-12T14:23:42.709Z,55.93
2019-01-12T14:24:51.539Z,55.74
2019-01-12T14:26:00.375Z,55.74
2019-01-12T14:27:09.230Z,55.55
2019-01-12T14:28:18.346Z,56.12
2019-01-12T14:29:27.481Z,55.07
2019-01-12T14:30:36.604Z,55.45
2019-01-12T14:31:45.431Z,55.16
2019-01-12T14:32:54.536Z,55.16
2019-01-12T14:34:03.369Z,55.55
2019-01-12T14:35:12.296Z,55.07
2019-01-12T14:36:21.113Z,55.26
2019-01-12T14:37:30.470Z,55.16
2019-01-12T14:38:39.576Z,55.16
2019-01-12T14:39:48.729Z,55.26
2019-01-12T14:40:57.945Z,55.26
2019-01-12T14:42:07.011Z,55.16
2019-01-12T14:43:15.831Z,55.07
2019-01-12T14:44:24.949Z,55.07
2019-01-12T14:45:33.794Z,55.16
2019-01-12T14:46:42.602Z,55.26
2019-01-12T14:47:51.985Z,55.16
2019-01-12T14:49:00.801Z,55.16
2019-01-12T14:50:09.902Z,55.16
2019-01-12T14:51:18.741Z,55.16
2019-01-12T14:52:27.924Z,55.16
2019-01-12T14:53:36.985Z,55.16
2019-01-12T14:54:46.103Z,55.07
2019-01-12T14:55:55.202Z,55.35
2019-01-12T14:57:04.808Z,55.35